^^
Station Historical Data
 
Daily Summary for September 24, 2018 Units:  Both    English   Metric
« Previous Day
Next Day »
Daily Weekly Monthly Yearly Custom
  Current: High: Low: Average:
Temperature: 74.5 °F /  23.6 °C TemperatureF °F /  -17.8 °C 74.5 °F /  23.6 °C 72.2 °F /  22.3 °C
Dew Point: 35.2 °F /  1.8 °C DewpointF °F /  -17.8 °C 29.8 °F /  -1.2 °C 32.7 °F /  0.4 °C
Humidity: 24% Humidity% 19% 22%
Wind Speed: 0.9mph /  1.4km/h WindSpeedMPHmph /  0km/h - 3.3mph /  5.3km/h
Wind Gust: 4mph /  6.4km/h WindSpeedGustMPHmph /  0km/h - -
WindSE - - SE
Pressure: 29.72 in /  1006.3 hPa PressureIn in /  0 hPa 29.72 in /  1006.3 hPa -
Precipitation: 0 in /  0 mm      
Historical Graphs
 
 
Tabular Data for September 24, 2018
Time Temperature Dew Point Pressure Wind Wind Speed Wind Gust Humidity Rainfall Rate (Hourly) solar Conditions
TemperatureF °F /  -17.8 °C DewpointF °F /  -17.8 °C PressureInin /  0hPa Calm     Humidity% HourlyPrecipInin /  0mm SolarRadiationWatts/m^2 W/m2 Conditions
00:04 74.8 °F /  23.8 °C 29.8 °F /  -1.2 °C 29.75in /  1007.3hPa ESE 4mph /  6.4km/h 14mph /  22.5km/h 19% 0in /  0mm 0.00 W/m2
00:09 75.2 °F /  24 °C 31.5 °F /  -0.3 °C 29.75in /  1007.3hPa SSE 2.9mph /  4.7km/h 8mph /  12.9km/h 20% 0in /  0mm 0.00 W/m2
00:14 75.6 °F /  24.2 °C 31.6 °F /  -0.2 °C 29.75in /  1007.3hPa ESE 6mph /  9.7km/h 7mph /  11.3km/h 20% 0in /  0mm 0.00 W/m2
00:19 75.6 °F /  24.2 °C 31.6 °F /  -0.2 °C 29.75in /  1007.3hPa SE 11mph /  17.7km/h 13mph /  20.9km/h 20% 0in /  0mm 0.00 W/m2
00:24 75.6 °F /  24.2 °C 32.9 °F /  0.5 °C 29.75in /  1007.3hPa ESE 6mph /  9.7km/h 11mph /  17.7km/h 21% 0in /  0mm 0.00 W/m2
00:29 75.6 °F /  24.2 °C 30.4 °F /  -0.9 °C 29.75in /  1007.3hPa SE 0.9mph /  1.4km/h 8mph /  12.9km/h 19% 0in /  0mm 0.00 W/m2
00:34 75.6 °F /  24.2 °C 31.6 °F /  -0.2 °C 29.75in /  1007.3hPa ESE 6mph /  9.7km/h 6mph /  9.7km/h 20% 0in /  0mm 0.00 W/m2
00:39 75.4 °F /  24.1 °C 31.5 °F /  -0.3 °C 29.75in /  1007.3hPa Calm   4mph /  6.4km/h 20% 0in /  0mm 0.00 W/m2
00:44 75 °F /  23.9 °C 31.3 °F /  -0.4 °C 29.75in /  1007.3hPa SE 0.9mph /  1.4km/h 3mph /  4.8km/h 20% 0in /  0mm 0.00 W/m2
00:49 74.7 °F /  23.7 °C 32.2 °F /  0.1 °C 29.75in /  1007.3hPa Calm   2mph /  3.2km/h 21% 0in /  0mm 0.00 W/m2
00:54 74.7 °F /  23.7 °C 34.3 °F /  1.3 °C 29.75in /  1007.3hPa SSE 5mph /  8km/h 5mph /  8km/h 23% 0in /  0mm 0.00 W/m2
00:59 74.7 °F /  23.7 °C 35.4 °F /  1.9 °C 29.75in /  1007.3hPa SE 4.9mph /  7.9km/h 5mph /  8km/h 24% 0in /  0mm 0.00 W/m2
01:04 74.8 °F /  23.8 °C 35.6 °F /  2 °C 29.75in /  1007.3hPa Calm   6mph /  9.7km/h 24% 0in /  0mm 0.00 W/m2
01:09 74.8 °F /  23.8 °C 35.6 °F /  2 °C 29.75in /  1007.3hPa SSE 4mph /  6.4km/h 6mph /  9.7km/h 24% 0in /  0mm 0.00 W/m2
01:14 75 °F /  23.9 °C 35.8 °F /  2.1 °C 29.75in /  1007.3hPa ESE 6.9mph /  11.1km/h 11mph /  17.7km/h 24% 0in /  0mm 0.00 W/m2
01:19 75 °F /  23.9 °C 35.8 °F /  2.1 °C 29.74in /  1007hPa SE 6mph /  9.7km/h 11mph /  17.7km/h 24% 0in /  0mm 0.00 W/m2
01:24 75 °F /  23.9 °C 35.8 °F /  2.1 °C 29.74in /  1007hPa SE 2.9mph /  4.7km/h 7mph /  11.3km/h 24% 0in /  0mm 0.00 W/m2
01:29 75 °F /  23.9 °C 35.8 °F /  2.1 °C 29.73in /  1006.7hPa SSE 6mph /  9.7km/h 11mph /  17.7km/h 24% 0in /  0mm 0.00 W/m2
01:34 75 °F /  23.9 °C 35.8 °F /  2.1 °C 29.73in /  1006.7hPa SE 0.9mph /  1.4km/h 4mph /  6.4km/h 24% 0in /  0mm 0.00 W/m2
01:39 75 °F /  23.9 °C 35.8 °F /  2.1 °C 29.72in /  1006.3hPa Calm   6mph /  9.7km/h 24% 0in /  0mm 0.00 W/m2
01:44 74.8 °F /  23.8 °C 35.6 °F /  2 °C 29.72in /  1006.3hPa SE 2.9mph /  4.7km/h 6mph /  9.7km/h 24% 0in /  0mm 0.00 W/m2
01:49 74.7 °F /  23.7 °C 35.4 °F /  1.9 °C 29.72in /  1006.3hPa Calm   4mph /  6.4km/h 24% 0in /  0mm 0.00 W/m2
01:54 74.5 °F /  23.6 °C 35.2 °F /  1.8 °C 29.72in /  1006.3hPa SSE 2.9mph /  4.7km/h 8mph /  12.9km/h 24% 0in /  0mm 0.00 W/m2
01:59 74.5 °F /  23.6 °C 35.2 °F /  1.8 °C 29.72in /  1006.3hPa SE 4.9mph /  7.9km/h 10mph /  16.1km/h 24% 0in /  0mm 0.00 W/m2
02:04 74.5 °F /  23.6 °C 35.2 °F /  1.8 °C 29.72in /  1006.3hPa SE 2.9mph /  4.7km/h 8mph /  12.9km/h 24% 0in /  0mm 0.00 W/m2
02:09 74.5 °F /  23.6 °C 35.2 °F /  1.8 °C 29.72in /  1006.3hPa SE 0.9mph /  1.4km/h 4mph /  6.4km/h 24% 0in /  0mm 0.00 W/m2
Olympia, Windhoek, Namibia
Compliments of Weather Underground - 2 mb